Time;durP1;ratioP1;P1;durP2;ratioP2;P2;SDS_P1;SDS_P2;PMS_P1;PMS_P2;Temp;Humidity;BMP_temperature;BMP_pressure;BME280_temperature;BME280_humidity;BME280_pressure;Samples;Min_cycle;Max_cycle;Signal;HPM_P1;HPM_P2
2021/12/15 00:01:22;;;;;;;4.93;3.33;;;;;;;;;;5092684;28;20036;-80
2021/12/15 00:03:49;;;;;;;6.55;3.78;;;;;;;;;;5072908;28;20040;-79
2021/12/15 00:06:18;;;;;;;6.10;3.50;;;;;;;;;;5091685;28;20071;-79
2021/12/15 00:08:46;;;;;;;5.25;3.03;;;;;;;;;;5090205;28;20062;-79
2021/12/15 00:11:13;;;;;;;5.25;3.60;;;;;;;;;;5088406;28;20029;-80
2021/12/15 00:13:40;;;;;;;6.38;3.58;;;;;;;;;;5091434;28;20029;-80
2021/12/15 00:16:08;;;;;;;5.32;3.42;;;;;;;;;;5085260;28;20033;-80
2021/12/15 00:18:35;;;;;;;3.67;2.50;;;;;;;;;;5093956;28;20045;-79
2021/12/15 00:21:02;;;;;;;3.33;2.22;;;;;;;;;;5077924;28;20043;-79
2021/12/15 00:23:28;;;;;;;5.30;3.53;;;;;;;;;;5075953;28;20055;-79
2021/12/15 00:25:55;;;;;;;4.03;2.63;;;;;;;;;;5074121;28;20098;-79
2021/12/15 00:28:21;;;;;;;6.10;3.25;;;;;;;;;;5073604;28;20060;-78
2021/12/15 00:30:48;;;;;;;3.90;2.35;;;;;;;;;;5070298;28;20072;-79
2021/12/15 00:33:14;;;;;;;7.10;3.90;;;;;;;;;;5073078;28;20079;-80
2021/12/15 00:35:41;;;;;;;4.90;3.25;;;;;;;;;;5084138;28;20083;-79
2021/12/15 00:38:07;;;;;;;7.70;3.95;;;;;;;;;;5051782;28;21320;-79
2021/12/15 00:40:34;;;;;;;4.22;2.88;;;;;;;;;;5075213;28;20060;-79
2021/12/15 00:43:02;;;;;;;6.80;3.50;;;;;;;;;;5068740;28;20437;-81
2021/12/15 00:45:28;;;;;;;3.63;2.30;;;;;;;;;;5051832;28;20048;-79
2021/12/15 00:47:55;;;;;;;3.78;2.50;;;;;;;;;;5065783;28;20044;-80
2021/12/15 00:50:24;;;;;;;5.03;2.33;;;;;;;;;;5051464;28;20118;-78
2021/12/15 00:52:50;;;;;;;2.78;1.90;;;;;;;;;;5062667;28;20071;-79
2021/12/15 00:55:18;;;;;;;4.20;2.60;;;;;;;;;;5068748;28;20096;-79
2021/12/15 00:57:45;;;;;;;4.45;2.15;;;;;;;;;;5062327;28;20584;-78
2021/12/15 01:00:14;;;;;;;3.80;2.53;;;;;;;;;;5063900;28;20577;-79
2021/12/15 01:02:41;;;;;;;4.60;2.88;;;;;;;;;;5069827;28;20056;-81
2021/12/15 01:05:09;;;;;;;5.30;2.45;;;;;;;;;;5066546;28;21274;-80
2021/12/15 01:07:35;;;;;;;3.90;2.20;;;;;;;;;;5063197;28;20059;-80
2021/12/15 01:10:02;;;;;;;2.83;2.05;;;;;;;;;;5066859;28;20060;-79
2021/12/15 01:12:51;;;;;;;2.80;1.77;;;;;;;;;;5067650;28;20060;-78
2021/12/15 01:20:43;;;;;;;4.78;2.60;;;;;;;;;;5068255;28;20106;-78
2021/12/15 01:23:13;;;;;;;3.65;2.30;;;;;;;;;;5065990;28;20041;-79
2021/12/15 01:25:54;;;;;;;4.60;2.28;;;;;;;;;;5069248;28;20067;-79
2021/12/15 01:28:22;;;;;;;4.70;2.42;;;;;;;;;;5043305;28;20061;-80
2021/12/15 01:30:49;;;;;;;4.20;1.95;;;;;;;;;;5054045;28;20068;-79
2021/12/15 01:33:16;;;;;;;2.58;1.60;;;;;;;;;;5045757;28;20040;-80
2021/12/15 01:35:44;;;;;;;3.50;2.25;;;;;;;;;;5029848;28;20068;-78
2021/12/15 01:38:10;;;;;;;3.67;1.70;;;;;;;;;;5041314;28;20095;-80
2021/12/15 01:40:39;;;;;;;3.03;1.90;;;;;;;;;;5047380;28;20079;-81
2021/12/15 01:43:20;;;;;;;3.25;2.03;;;;;;;;;;5042904;28;20037;-80
2021/12/15 01:48:37;;;;;;;4.03;2.00;;;;;;;;;;5045583;28;20037;-80
2021/12/15 01:51:04;;;;;;;3.85;1.92;;;;;;;;;;5044590;28;20060;-81
2021/12/15 01:53:31;;;;;;;2.88;1.67;;;;;;;;;;5046484;28;20079;-80
2021/12/15 01:55:58;;;;;;;2.60;1.58;;;;;;;;;;5052605;28;20488;-80
2021/12/15 01:58:24;;;;;;;2.65;1.52;;;;;;;;;;5051832;28;20488;-82
2021/12/15 02:00:53;;;;;;;3.50;2.35;;;;;;;;;;5057411;28;20319;-81
2021/12/15 02:03:20;;;;;;;2.33;1.35;;;;;;;;;;5049702;28;20061;-81
2021/12/15 02:05:46;;;;;;;3.15;1.85;;;;;;;;;;5055900;28;20060;-82
2021/12/15 02:08:13;;;;;;;2.20;1.42;;;;;;;;;;5047383;28;20145;-82
2021/12/15 02:10:40;;;;;;;3.95;2.13;;;;;;;;;;5056067;28;20064;-79
2021/12/15 02:13:08;;;;;;;4.68;1.85;;;;;;;;;;5044654;28;20063;-81
2021/12/15 02:15:38;;;;;;;2.33;1.67;;;;;;;;;;5038109;28;20104;-82
2021/12/15 02:18:06;;;;;;;3.55;1.90;;;;;;;;;;5050942;28;20536;-81
2021/12/15 02:20:38;;;;;;;3.42;1.83;;;;;;;;;;5045438;28;20059;-79
2021/12/15 02:23:05;;;;;;;3.47;2.10;;;;;;;;;;5044641;28;20517;-79
2021/12/15 02:25:32;;;;;;;3.63;1.60;;;;;;;;;;5048970;28;20068;-79
2021/12/15 02:28:00;;;;;;;2.90;1.40;;;;;;;;;;5050764;28;20068;-80
2021/12/15 02:30:45;;;;;;;3.85;1.65;;;;;;;;;;5035740;28;20072;-80
2021/12/15 02:38:36;;;;;;;2.78;1.73;;;;;;;;;;5039956;28;20103;-83
2021/12/15 02:41:10;;;;;;;2.80;1.50;;;;;;;;;;5041112;28;20057;-82
2021/12/15 02:43:37;;;;;;;2.92;1.50;;;;;;;;;;5042309;28;20057;-83
2021/12/15 02:46:05;;;;;;;3.22;1.70;;;;;;;;;;5038625;28;20090;-84
2021/12/15 02:48:32;;;;;;;2.67;1.65;;;;;;;;;;5045983;28;20515;-83
2021/12/15 02:50:58;;;;;;;2.78;1.33;;;;;;;;;;5049334;28;20071;-81
2021/12/15 02:53:25;;;;;;;4.13;1.55;;;;;;;;;;5046408;28;20575;-80
2021/12/15 02:55:51;;;;;;;2.00;1.25;;;;;;;;;;5046459;28;20037;-80
2021/12/15 02:58:20;;;;;;;4.70;1.90;;;;;;;;;;5047414;28;20098;-80
2021/12/15 03:00:55;;;;;;;1.75;1.10;;;;;;;;;;5045307;28;20049;-80
2021/12/15 03:06:16;;;;;;;3.10;1.58;;;;;;;;;;5042773;28;20119;-81
2021/12/15 03:09:00;;;;;;;2.88;1.30;;;;;;;;;;5031857;28;20033;-79
2021/12/15 03:16:58;;;;;;;3.65;1.48;;;;;;;;;;5043369;28;20110;-79
2021/12/15 03:19:25;;;;;;;3.58;1.95;;;;;;;;;;5047291;28;20103;-79
2021/12/15 03:21:52;;;;;;;2.60;1.58;;;;;;;;;;5044281;28;20068;-78
2021/12/15 03:24:21;;;;;;;3.85;1.50;;;;;;;;;;5037902;28;20059;-80
2021/12/15 03:27:00;;;;;;;2.40;1.33;;;;;;;;;;5044664;28;20068;-80
2021/12/15 03:37:28;;;;;;;4.07;1.52;;;;;;;;;;5045294;28;20033;-79
2021/12/15 03:39:57;;;;;;;1.98;1.20;;;;;;;;;;5043828;28;20037;-79
2021/12/15 03:42:29;;;;;;;2.22;1.27;;;;;;;;;;5047018;28;20083;-79
2021/12/15 03:44:57;;;;;;;2.75;1.50;;;;;;;;;;5055771;28;20060;-78
2021/12/15 03:47:27;;;;;;;2.65;1.40;;;;;;;;;;5059042;28;20492;-80
2021/12/15 03:49:54;;;;;;;2.42;1.30;;;;;;;;;;5061084;28;20067;-78
2021/12/15 03:52:21;;;;;;;2.30;1.30;;;;;;;;;;5065812;28;20032;-79
2021/12/15 03:54:48;;;;;;;5.90;1.70;;;;;;;;;;5058195;28;20061;-80
2021/12/15 03:57:14;;;;;;;2.67;1.52;;;;;;;;;;5064218;28;20067;-79
2021/12/15 03:59:43;;;;;;;2.35;1.40;;;;;;;;;;5064370;28;20056;-79
2021/12/15 04:02:10;;;;;;;1.95;1.20;;;;;;;;;;5062164;28;20196;-80
2021/12/15 04:04:37;;;;;;;2.72;1.40;;;;;;;;;;5064997;28;20079;-80
2021/12/15 04:07:03;;;;;;;2.95;1.45;;;;;;;;;;5042565;28;20617;-80
2021/12/15 04:09:30;;;;;;;2.53;1.27;;;;;;;;;;5061287;28;20060;-81
2021/12/15 04:11:56;;;;;;;2.38;1.25;;;;;;;;;;5063687;28;20090;-79
2021/12/15 04:14:28;;;;;;;2.33;1.35;;;;;;;;;;5065136;28;20140;-78
2021/12/15 04:17:01;;;;;;;2.72;1.30;;;;;;;;;;5063030;28;20066;-82
2021/12/15 04:19:28;;;;;;;3.10;1.50;;;;;;;;;;5061526;28;20048;-83
2021/12/15 04:21:54;;;;;;;2.47;1.30;;;;;;;;;;5067673;28;20045;-84
2021/12/15 04:24:23;;;;;;;2.60;1.50;;;;;;;;;;5063661;28;20130;-84
2021/12/15 04:26:50;;;;;;;1.90;1.02;;;;;;;;;;5063219;28;20059;-84
2021/12/15 04:29:17;;;;;;;2.95;1.27;;;;;;;;;;5048266;28;20429;-82
2021/12/15 04:31:53;;;;;;;2.88;1.30;;;;;;;;;;5061276;28;20621;-81
2021/12/15 04:34:20;;;;;;;2.65;1.15;;;;;;;;;;5059658;28;20055;-81
2021/12/15 04:36:47;;;;;;;2.03;1.10;;;;;;;;;;5061126;28;20076;-81
2021/12/15 04:39:17;;;;;;;1.58;0.90;;;;;;;;;;5061263;28;20122;-81
2021/12/15 04:41:48;;;;;;;3.33;1.33;;;;;;;;;;5062645;28;20075;-79
2021/12/15 04:44:15;;;;;;;2.33;1.30;;;;;;;;;;5065172;28;20068;-82
2021/12/15 04:46:46;;;;;;;1.90;1.00;;;;;;;;;;5066513;28;20064;-83
2021/12/15 04:49:14;;;;;;;3.08;1.20;;;;;;;;;;5046338;28;20067;-83
2021/12/15 04:51:41;;;;;;;2.22;1.20;;;;;;;;;;5065194;28;20090;-83
2021/12/15 04:54:07;;;;;;;2.53;1.00;;;;;;;;;;5063425;28;20063;-84
2021/12/15 04:56:34;;;;;;;2.63;1.40;;;;;;;;;;5065008;28;20068;-84
2021/12/15 04:59:00;;;;;;;1.58;0.90;;;;;;;;;;5062411;28;20446;-81
2021/12/15 05:01:27;;;;;;;2.88;1.00;;;;;;;;;;5066283;28;20082;-81
2021/12/15 05:03:53;;;;;;;3.55;1.10;;;;;;;;;;5064876;28;20101;-83
2021/12/15 05:06:26;;;;;;;2.78;1.20;;;;;;;;;;5069538;28;20086;-84
2021/12/15 05:09:01;;;;;;;;;;;;;;;;;;5050913;28;20035;-83
2021/12/15 05:11:27;;;;;;;2.33;1.20;;;;;;;;;;5063345;28;20344;-82
2021/12/15 05:13:55;;;;;;;5.15;1.50;;;;;;;;;;5066493;28;20455;-83
2021/12/15 05:16:24;;;;;;;3.40;1.27;;;;;;;;;;5067332;28;20127;-81
2021/12/15 05:18:51;;;;;;;3.97;1.70;;;;;;;;;;5062749;28;20061;-80
2021/12/15 05:21:18;;;;;;;3.78;1.20;;;;;;;;;;5064744;28;20064;-82
2021/12/15 05:23:48;;;;;;;4.63;1.70;;;;;;;;;;5063047;28;20487;-78
2021/12/15 05:26:15;;;;;;;3.47;1.30;;;;;;;;;;5064148;28;20040;-82
2021/12/15 05:28:41;;;;;;;3.58;1.10;;;;;;;;;;5063831;28;20508;-82
2021/12/15 05:31:08;;;;;;;3.80;1.98;;;;;;;;;;5048860;28;20060;-83
2021/12/15 05:33:34;;;;;;;4.57;1.45;;;;;;;;;;5064722;28;20055;-84
2021/12/15 05:36:01;;;;;;;3.28;1.50;;;;;;;;;;5064097;28;20477;-84
2021/12/15 05:38:28;;;;;;;2.83;1.20;;;;;;;;;;5068351;28;20044;-84
2021/12/15 05:40:57;;;;;;;3.17;1.45;;;;;;;;;;5063217;28;20060;-83
2021/12/15 05:43:24;;;;;;;4.05;1.55;;;;;;;;;;5068294;28;20056;-83
2021/12/15 05:45:51;;;;;;;4.85;1.88;;;;;;;;;;5071308;28;20071;-83
2021/12/15 05:48:19;;;;;;;3.55;1.45;;;;;;;;;;5066278;28;20056;-83
2021/12/15 05:50:47;;;;;;;4.15;1.40;;;;;;;;;;5067714;28;20082;-81
2021/12/15 05:53:13;;;;;;;5.07;1.80;;;;;;;;;;5072977;28;20037;-82
2021/12/15 05:55:41;;;;;;;4.45;1.60;;;;;;;;;;5067632;28;20032;-83
2021/12/15 05:58:07;;;;;;;3.30;1.45;;;;;;;;;;5044652;28;20060;-82
2021/12/15 06:00:37;;;;;;;3.20;1.10;;;;;;;;;;5066095;28;20056;-82
2021/12/15 06:03:04;;;;;;;2.53;1.05;;;;;;;;;;5066132;28;20112;-82
2021/12/15 06:05:30;;;;;;;3.40;1.80;;;;;;;;;;5065980;28;20068;-83
2021/12/15 06:07:57;;;;;;;5.18;1.35;;;;;;;;;;5056072;28;20067;-82
2021/12/15 06:10:26;;;;;;;3.28;0.90;;;;;;;;;;5066343;28;20068;-82
2021/12/15 06:12:53;;;;;;;4.97;1.13;;;;;;;;;;5075827;28;20024;-82
2021/12/15 06:15:22;;;;;;;3.55;1.38;;;;;;;;;;5066114;28;20079;-82
2021/12/15 06:17:50;;;;;;;5.28;1.25;;;;;;;;;;5062534;28;20068;-81
2021/12/15 06:20:16;;;;;;;3.28;1.25;;;;;;;;;;5066710;28;20566;-82
2021/12/15 06:22:45;;;;;;;3.88;1.35;;;;;;;;;;5067243;28;20063;-82
2021/12/15 06:25:12;;;;;;;3.78;1.30;;;;;;;;;;5065670;28;21702;-82
2021/12/15 06:27:40;;;;;;;2.85;1.05;;;;;;;;;;5068633;28;20400;-82
2021/12/15 06:30:08;;;;;;;3.65;1.50;;;;;;;;;;5051849;28;20064;-82
2021/12/15 06:32:34;;;;;;;3.17;1.15;;;;;;;;;;5071704;28;20118;-81
2021/12/15 06:35:01;;;;;;;3.08;0.93;;;;;;;;;;5026392;28;20099;-81
2021/12/15 06:37:27;;;;;;;2.80;1.20;;;;;;;;;;5058631;28;20064;-81
2021/12/15 06:39:54;;;;;;;2.08;0.88;;;;;;;;;;5056812;28;20425;-84
2021/12/15 06:42:20;;;;;;;3.35;1.00;;;;;;;;;;5047371;28;20052;-84
2021/12/15 06:44:47;;;;;;;3.20;1.13;;;;;;;;;;5066815;28;20507;-84
2021/12/15 06:57:16;;;;;;;4.78;1.30;;;;;;;;;;5067327;28;20052;-83
2021/12/15 06:58:24;;;;;;;2.45;1.00;;;;;;;;;;5064312;28;21169;-81
2021/12/15 07:00:56;;;;;;;2.35;0.82;;;;;;;;;;5063483;28;20505;-80
2021/12/15 07:03:23;;;;;;;2.53;0.98;;;;;;;;;;5065630;28;20052;-83
2021/12/15 07:05:50;;;;;;;3.17;0.90;;;;;;;;;;5051057;28;20130;-78
2021/12/15 07:08:16;;;;;;;2.28;1.10;;;;;;;;;;5043361;28;20048;-79
2021/12/15 07:10:45;;;;;;;2.92;0.65;;;;;;;;;;5065584;28;20113;-78
2021/12/15 07:13:12;;;;;;;3.05;1.08;;;;;;;;;;5064127;28;21378;-78
2021/12/15 07:15:38;;;;;;;1.67;0.88;;;;;;;;;;5062822;28;20036;-79
2021/12/15 07:18:08;;;;;;;2.58;1.02;;;;;;;;;;5059927;28;20113;-78
2021/12/15 07:20:49;;;;;;;2.53;0.82;;;;;;;;;;5059574;28;20067;-78
2021/12/15 07:23:17;;;;;;;1.90;0.90;;;;;;;;;;5052287;28;20033;-78
2021/12/15 07:25:46;;;;;;;2.25;0.80;;;;;;;;;;5048121;28;20045;-78
2021/12/15 07:28:13;;;;;;;2.30;1.00;;;;;;;;;;5063802;28;20446;-77
2021/12/15 07:30:41;;;;;;;1.95;0.90;;;;;;;;;;5066583;28;20511;-79
2021/12/15 07:33:09;;;;;;;2.60;0.82;;;;;;;;;;5048249;28;20082;-78
2021/12/15 07:35:36;;;;;;;1.95;0.77;;;;;;;;;;5063049;28;20068;-78
2021/12/15 07:38:04;;;;;;;1.52;0.80;;;;;;;;;;5061703;28;20044;-78
2021/12/15 07:40:31;;;;;;;1.83;0.80;;;;;;;;;;5062162;28;20116;-78
2021/12/15 07:45:29;;;;;;;2.38;1.00;;;;;;;;;;5065331;28;20041;-78
2021/12/15 07:47:57;;;;;;;2.45;0.95;;;;;;;;;;5065000;28;20445;-80
2021/12/15 07:50:23;;;;;;;2.35;0.90;;;;;;;;;;5066763;28;20036;-77
2021/12/15 07:52:51;;;;;;;2.03;1.00;;;;;;;;;;5068050;28;20064;-78
2021/12/15 07:55:18;;;;;;;2.30;1.20;;;;;;;;;;5065827;28;20504;-78
2021/12/15 07:57:44;;;;;;;2.45;0.80;;;;;;;;;;5061777;28;20711;-78
2021/12/15 08:00:12;;;;;;;2.22;0.85;;;;;;;;;;5060926;28;20032;-78
2021/12/15 08:02:39;;;;;;;1.73;0.68;;;;;;;;;;5061191;28;20079;-78
2021/12/15 08:05:06;;;;;;;2.47;1.08;;;;;;;;;;5064361;28;20040;-77
2021/12/15 08:07:32;;;;;;;1.70;0.90;;;;;;;;;;5063530;28;20056;-79
2021/12/15 08:09:59;;;;;;;1.58;0.60;;;;;;;;;;5055650;28;20060;-79
2021/12/15 08:12:28;;;;;;;2.28;1.10;;;;;;;;;;5056382;28;20071;-79
2021/12/15 08:14:54;;;;;;;1.85;0.88;;;;;;;;;;5065192;28;20094;-79
2021/12/15 08:17:21;;;;;;;2.28;0.82;;;;;;;;;;5068199;28;20072;-79
2021/12/15 08:19:48;;;;;;;1.88;0.93;;;;;;;;;;5060097;28;20072;-80
2021/12/15 08:22:14;;;;;;;2.67;0.90;;;;;;;;;;5051076;28;20032;-81
2021/12/15 08:24:41;;;;;;;2.25;0.80;;;;;;;;;;5048675;28;20037;-82
2021/12/15 08:27:07;;;;;;;2.50;0.80;;;;;;;;;;5048227;28;20504;-79
2021/12/15 08:29:34;;;;;;;1.88;0.88;;;;;;;;;;5065372;28;20060;-78
2021/12/15 08:32:00;;;;;;;1.73;0.88;;;;;;;;;;5067088;28;20060;-79
2021/12/15 08:34:26;;;;;;;1.70;0.80;;;;;;;;;;5064745;28;20060;-80
2021/12/15 08:36:54;;;;;;;1.48;0.90;;;;;;;;;;5067173;28;20054;-79
2021/12/15 08:39:21;;;;;;;1.60;0.70;;;;;;;;;;5065943;28;20185;-79
2021/12/15 08:41:48;;;;;;;2.47;0.90;;;;;;;;;;5064993;28;20067;-79
2021/12/15 08:44:14;;;;;;;2.88;1.20;;;;;;;;;;5067282;28;20075;-80
2021/12/15 08:46:42;;;;;;;2.83;0.85;;;;;;;;;;5051058;28;20064;-80
2021/12/15 08:49:10;;;;;;;2.88;0.80;;;;;;;;;;5067562;28;20067;-80
2021/12/15 08:51:37;;;;;;;2.22;0.88;;;;;;;;;;5065533;28;20729;-79
2021/12/15 08:54:14;;;;;;;2.10;0.90;;;;;;;;;;5066563;28;20064;-79
2021/12/15 08:57:04;;;;;;;1.85;1.00;;;;;;;;;;5049733;28;20036;-79
2021/12/15 08:59:30;;;;;;;2.03;1.33;;;;;;;;;;5065433;28;20069;-79
2021/12/15 09:01:57;;;;;;;3.20;1.15;;;;;;;;;;5064739;28;20071;-79
2021/12/15 09:04:23;;;;;;;3.35;1.02;;;;;;;;;;5065677;28;20055;-79
2021/12/15 09:06:50;;;;;;;2.30;1.00;;;;;;;;;;5068988;28;20041;-77
2021/12/15 09:09:20;;;;;;;2.28;0.90;;;;;;;;;;5069002;28;20086;-78
2021/12/15 09:11:47;;;;;;;1.92;1.00;;;;;;;;;;5068060;28;20072;-79
2021/12/15 09:14:13;;;;;;;2.13;0.70;;;;;;;;;;5070846;28;20041;-79
2021/12/15 09:16:41;;;;;;;1.67;0.77;;;;;;;;;;5071516;28;20404;-79
2021/12/15 09:19:08;;;;;;;2.45;1.10;;;;;;;;;;5078104;28;20028;-80
2021/12/15 09:21:36;;;;;;;1.58;0.90;;;;;;;;;;5072913;28;20062;-79
2021/12/15 09:24:04;;;;;;;3.78;0.80;;;;;;;;;;5071903;28;20033;-79
2021/12/15 09:26:31;;;;;;;1.83;0.80;;;;;;;;;;5066414;28;20563;-78
2021/12/15 09:28:58;;;;;;;1.98;1.00;;;;;;;;;;5071011;28;20032;-78
2021/12/15 09:31:25;;;;;;;1.98;0.80;;;;;;;;;;5069593;28;20133;-79
2021/12/15 09:33:53;;;;;;;2.17;0.75;;;;;;;;;;5043543;28;20377;-79
2021/12/15 09:36:20;;;;;;;1.73;1.00;;;;;;;;;;5067766;28;20129;-79
2021/12/15 09:38:48;;;;;;;1.50;0.80;;;;;;;;;;5045266;28;20056;-79
2021/12/15 09:41:15;;;;;;;2.00;0.98;;;;;;;;;;5067149;28;20067;-79
2021/12/15 09:43:43;;;;;;;2.13;0.68;;;;;;;;;;5048818;28;20056;-79
2021/12/15 09:46:25;;;;;;;1.90;0.90;;;;;;;;;;5057729;28;21297;-78
2021/12/15 10:02:40;;;;;;;2.10;0.98;;;;;;;;;;5064414;28;20078;-79
2021/12/15 10:18:55;;;;;;;2.03;0.70;;;;;;;;;;5062026;28;20114;-79
2021/12/15 10:21:29;;;;;;;2.38;1.10;;;;;;;;;;5067860;28;20056;-80
2021/12/15 10:23:56;;;;;;;3.22;1.00;;;;;;;;;;5066130;28;20500;-79
2021/12/15 10:26:22;;;;;;;1.90;0.90;;;;;;;;;;5066456;28;20064;-79
2021/12/15 10:28:52;;;;;;;2.00;1.05;;;;;;;;;;5064822;28;20060;-80
2021/12/15 10:31:20;;;;;;;3.08;1.10;;;;;;;;;;5066268;28;20507;-80
2021/12/15 10:33:49;;;;;;;2.30;0.88;;;;;;;;;;5067767;28;20490;-79
2021/12/15 10:36:27;;;;;;;2.45;1.10;;;;;;;;;;5066716;28;20134;-80
2021/12/15 10:39:04;;;;;;;1.63;0.73;;;;;;;;;;5059460;28;20033;-79
2021/12/15 10:41:36;;;;;;;2.00;1.02;;;;;;;;;;5065669;28;20097;-80
2021/12/15 10:44:04;;;;;;;2.17;0.85;;;;;;;;;;5067888;28;20424;-80
2021/12/15 10:46:41;;;;;;;2.78;1.00;;;;;;;;;;5067355;28;20029;-79
2021/12/15 10:49:10;;;;;;;1.48;0.90;;;;;;;;;;5070195;28;20052;-79
2021/12/15 10:51:42;;;;;;;1.73;0.88;;;;;;;;;;5070250;28;20060;-79
2021/12/15 10:54:14;;;;;;;2.05;0.93;;;;;;;;;;5065837;28;20557;-80
2021/12/15 10:56:47;;;;;;;1.55;0.82;;;;;;;;;;5071567;28;20063;-80
2021/12/15 10:59:14;;;;;;;3.20;0.90;;;;;;;;;;5082485;28;21155;-80
2021/12/15 11:01:43;;;;;;;2.85;0.82;;;;;;;;;;5069776;28;20029;-79
2021/12/15 11:04:28;;;;;;;3.75;1.00;;;;;;;;;;5085656;28;20102;-80
2021/12/15 11:07:20;;;;;;;2.53;0.77;;;;;;;;;;5067512;28;20040;-79
2021/12/15 11:09:49;;;;;;;2.75;0.95;;;;;;;;;;5066785;28;20040;-79
2021/12/15 11:12:18;;;;;;;2.50;0.93;;;;;;;;;;5078447;28;20075;-80
2021/12/15 11:14:47;;;;;;;2.30;0.82;;;;;;;;;;5080812;28;20040;-78
2021/12/15 11:17:15;;;;;;;1.33;0.75;;;;;;;;;;5076988;28;20110;-81
2021/12/15 11:19:42;;;;;;;2.50;1.00;;;;;;;;;;5061355;28;20044;-80
2021/12/15 11:22:27;;;;;;;2.90;0.90;;;;;;;;;;5045079;28;20048;-80
2021/12/15 11:24:53;;;;;;;1.13;0.65;;;;;;;;;;5080439;28;20058;-79
2021/12/15 11:27:20;;;;;;;1.60;1.00;;;;;;;;;;5076576;28;20573;-79
2021/12/15 11:29:46;;;;;;;1.48;0.85;;;;;;;;;;5065749;28;20031;-79
2021/12/15 11:32:32;;;;;;;2.83;1.02;;;;;;;;;;5063155;28;20072;-81
2021/12/15 11:35:18;;;;;;;2.42;1.00;;;;;;;;;;5046700;28;20101;-79
2021/12/15 11:37:47;;;;;;;3.53;0.90;;;;;;;;;;5063825;28;20449;-78
2021/12/15 11:40:14;;;;;;;1.52;0.88;;;;;;;;;;5066117;28;20499;-78
2021/12/15 11:42:41;;;;;;;3.03;1.00;;;;;;;;;;5065804;28;20090;-78
2021/12/15 11:45:09;;;;;;;2.58;0.85;;;;;;;;;;5064895;28;20430;-78
2021/12/15 11:47:37;;;;;;;2.85;1.13;;;;;;;;;;5067515;28;20051;-78
2021/12/15 11:50:08;;;;;;;3.35;0.90;;;;;;;;;;5063136;28;20048;-78
2021/12/15 11:52:39;;;;;;;2.10;0.90;;;;;;;;;;5059318;28;20068;-78
2021/12/15 11:55:20;;;;;;;3.22;1.08;;;;;;;;;;5069147;28;20153;-79
2021/12/15 11:57:46;;;;;;;1.60;0.77;;;;;;;;;;5065740;28;20052;-78
2021/12/15 12:00:16;;;;;;;2.28;0.82;;;;;;;;;;5070594;28;20141;-78
2021/12/15 12:02:48;;;;;;;2.40;0.80;;;;;;;;;;5070526;28;20056;-78
2021/12/15 12:05:20;;;;;;;3.90;0.93;;;;;;;;;;5065344;28;20126;-78
2021/12/15 12:07:53;;;;;;;2.97;1.00;;;;;;;;;;5067207;28;20053;-77
2021/12/15 12:10:22;;;;;;;2.67;1.00;;;;;;;;;;5068459;28;20562;-76
2021/12/15 12:12:57;;;;;;;1.88;0.90;;;;;;;;;;5065303;28;20094;-78
2021/12/15 12:15:24;;;;;;;1.88;0.82;;;;;;;;;;5074916;28;20075;-77
2021/12/15 12:17:52;;;;;;;2.42;1.00;;;;;;;;;;5048205;28;20078;-76
2021/12/15 12:20:19;;;;;;;3.67;1.10;;;;;;;;;;5067164;28;20063;-78
2021/12/15 12:22:49;;;;;;;2.67;0.75;;;;;;;;;;5066614;28;20056;-77
2021/12/15 12:25:24;;;;;;;1.42;0.70;;;;;;;;;;5023842;28;22306;-78
2021/12/15 12:27:57;;;;;;;1.98;1.00;;;;;;;;;;5062609;28;20040;-77
2021/12/15 12:30:34;;;;;;;3.58;1.27;;;;;;;;;;5064829;28;20086;-76
2021/12/15 12:33:01;;;;;;;2.97;1.00;;;;;;;;;;5035070;28;20065;-77
2021/12/15 12:35:30;;;;;;;1.70;0.80;;;;;;;;;;5029287;28;20845;-77
2021/12/15 12:37:58;;;;;;;2.67;0.90;;;;;;;;;;5069243;28;20059;-76
2021/12/15 12:40:27;;;;;;;2.55;1.20;;;;;;;;;;5063884;28;20060;-76
2021/12/15 12:42:54;;;;;;;1.88;1.05;;;;;;;;;;5067833;28;20028;-76
2021/12/15 12:45:38;;;;;;;2.92;1.00;;;;;;;;;;5066396;28;20063;-76
2021/12/15 12:48:45;;;;;;;2.20;0.70;;;;;;;;;;5048156;28;20102;-76
2021/12/15 12:59:32;;;;;;;3.78;0.80;;;;;;;;;;5049884;28;20040;-77
2021/12/15 13:01:59;;;;;;;3.20;0.80;;;;;;;;;;5066143;28;20060;-77
2021/12/15 13:04:44;;;;;;;1.90;0.70;;;;;;;;;;5065491;28;20068;-77
2021/12/15 13:07:11;;;;;;;4.15;1.13;;;;;;;;;;5060765;28;20095;-77
2021/12/15 13:09:45;;;;;;;2.55;0.90;;;;;;;;;;5058810;28;20070;-77
2021/12/15 13:12:19;;;;;;;2.38;1.00;;;;;;;;;;5058815;28;22384;-77
2021/12/15 13:14:46;;;;;;;3.05;0.90;;;;;;;;;;5064285;28;20126;-76
2021/12/15 13:17:24;;;;;;;2.08;1.10;;;;;;;;;;5048439;28;20500;-77
2021/12/15 13:19:51;;;;;;;2.35;1.00;;;;;;;;;;5064815;28;20755;-77
2021/12/15 13:22:37;;;;;;;2.78;0.90;;;;;;;;;;5065284;28;20126;-77
2021/12/15 13:31:02;;;;;;;2.15;0.88;;;;;;;;;;5062602;28;20110;-77
2021/12/15 13:33:35;;;;;;;1.70;0.88;;;;;;;;;;5048400;28;20087;-77
2021/12/15 13:36:09;;;;;;;2.15;0.90;;;;;;;;;;5059975;28;20072;-76
2021/12/15 13:38:43;;;;;;;1.75;0.80;;;;;;;;;;5064266;28;20068;-77
2021/12/15 13:41:20;;;;;;;2.25;1.00;;;;;;;;;;5065751;28;20048;-77
2021/12/15 13:43:52;;;;;;;2.03;1.00;;;;;;;;;;5064023;28;20068;-77
2021/12/15 13:46:23;;;;;;;2.53;0.90;;;;;;;;;;5047113;28;20087;-77
2021/12/15 13:48:55;;;;;;;5.68;1.05;;;;;;;;;;5064765;28;20437;-78
2021/12/15 13:51:40;;;;;;;2.53;1.10;;;;;;;;;;5060650;28;20632;-77
2021/12/15 13:54:20;;;;;;;2.90;1.20;;;;;;;;;;5064028;28;20652;-77
2021/12/15 13:56:48;;;;;;;5.95;1.17;;;;;;;;;;5059794;28;20064;-77
2021/12/15 13:59:40;;;;;;;1.98;1.00;;;;;;;;;;5064737;28;20385;-78
2021/12/15 14:02:10;;;;;;;1.30;0.88;;;;;;;;;;5063071;28;20059;-77
2021/12/15 14:05:09;;;;;;;1.85;0.93;;;;;;;;;;5038285;28;20114;-77
2021/12/15 14:07:37;;;;;;;2.25;0.90;;;;;;;;;;5043955;28;22255;-77
2021/12/15 14:10:13;;;;;;;4.32;1.08;;;;;;;;;;5054774;28;20577;-76
2021/12/15 14:12:48;;;;;;;2.97;1.10;;;;;;;;;;5064581;28;20090;-76
2021/12/15 14:15:33;;;;;;;3.03;1.00;;;;;;;;;;5060806;28;20119;-77
2021/12/15 14:18:02;;;;;;;1.58;0.90;;;;;;;;;;5052195;28;20064;-77
2021/12/15 14:20:29;;;;;;;2.47;1.10;;;;;;;;;;5064777;28;20068;-78
2021/12/15 14:23:00;;;;;;;4.60;1.00;;;;;;;;;;5064906;28;20068;-78
2021/12/15 14:25:26;;;;;;;4.33;1.10;;;;;;;;;;5057817;28;20063;-76
2021/12/15 14:27:53;;;;;;;2.40;0.77;;;;;;;;;;5061230;28;20520;-77
2021/12/15 14:30:20;;;;;;;2.20;1.10;;;;;;;;;;5063846;28;20052;-76
2021/12/15 14:32:46;;;;;;;2.33;1.10;;;;;;;;;;5064517;28;20060;-76
2021/12/15 14:35:23;;;;;;;2.15;1.00;;;;;;;;;;5062690;28;20045;-76
2021/12/15 14:37:50;;;;;;;3.10;1.10;;;;;;;;;;5061597;28;20063;-76
2021/12/15 14:40:16;;;;;;;2.42;0.90;;;;;;;;;;5065604;28;20457;-77
2021/12/15 14:42:43;;;;;;;3.50;1.15;;;;;;;;;;5056890;28;20056;-77
2021/12/15 14:45:11;;;;;;;5.15;1.17;;;;;;;;;;5062180;28;20060;-75
2021/12/15 14:47:38;;;;;;;2.40;1.00;;;;;;;;;;5065069;28;20040;-77
2021/12/15 14:50:16;;;;;;;2.72;1.10;;;;;;;;;;5046715;28;20109;-79
2021/12/15 14:52:44;;;;;;;2.08;1.10;;;;;;;;;;5063014;28;20071;-81
2021/12/15 14:55:19;;;;;;;1.83;0.93;;;;;;;;;;5060635;28;20052;-77
2021/12/15 14:57:45;;;;;;;1.42;0.80;;;;;;;;;;5063272;28;20098;-77
2021/12/15 15:00:19;;;;;;;4.45;1.10;;;;;;;;;;5046495;28;21246;-77
2021/12/15 15:02:49;;;;;;;1.65;0.80;;;;;;;;;;5066562;28;20309;-77
2021/12/15 15:05:25;;;;;;;2.17;1.10;;;;;;;;;;5061466;28;20317;-77
2021/12/15 15:07:53;;;;;;;2.28;1.10;;;;;;;;;;5047678;28;20063;-77
2021/12/15 15:10:22;;;;;;;3.35;1.25;;;;;;;;;;5063917;28;20064;-78
2021/12/15 15:12:48;;;;;;;2.85;1.10;;;;;;;;;;5059482;28;20441;-77
2021/12/15 15:15:24;;;;;;;2.90;1.30;;;;;;;;;;5063367;28;20815;-77
2021/12/15 15:18:01;;;;;;;2.95;1.00;;;;;;;;;;5061469;28;20064;-77
2021/12/15 15:20:39;;;;;;;2.92;1.13;;;;;;;;;;5062450;28;20500;-77
2021/12/15 15:23:07;;;;;;;2.85;0.88;;;;;;;;;;5060915;28;20052;-76
2021/12/15 15:25:36;;;;;;;1.77;0.82;;;;;;;;;;5069137;28;20142;-77
2021/12/15 15:28:07;;;;;;;2.17;1.00;;;;;;;;;;5062223;28;20153;-77
2021/12/15 15:30:35;;;;;;;2.38;0.90;;;;;;;;;;5059692;28;20496;-77
2021/12/15 15:33:06;;;;;;;1.90;0.90;;;;;;;;;;5064924;28;20197;-76
2021/12/15 15:35:35;;;;;;;3.22;1.13;;;;;;;;;;5062912;28;20118;-77
2021/12/15 15:38:05;;;;;;;1.90;0.90;;;;;;;;;;5043407;28;20067;-77
2021/12/15 15:40:31;;;;;;;2.80;1.30;;;;;;;;;;5064335;28;20064;-77
2021/12/15 15:43:34;;;;;;;2.03;0.80;;;;;;;;;;5037193;28;20066;-76
2021/12/15 15:46:12;;;;;;;2.08;0.80;;;;;;;;;;5059048;28;20033;-76
2021/12/15 15:48:42;;;;;;;1.92;1.00;;;;;;;;;;5046807;28;20029;-76
2021/12/15 15:51:29;;;;;;;3.35;1.10;;;;;;;;;;5045618;28;20124;-78
2021/12/15 15:54:02;;;;;;;1.98;1.00;;;;;;;;;;5032167;28;20113;-81
2021/12/15 15:56:29;;;;;;;2.50;0.98;;;;;;;;;;5062970;28;20061;-80
2021/12/15 15:59:09;;;;;;;2.53;1.00;;;;;;;;;;5041537;28;20172;-80
2021/12/15 16:01:38;;;;;;;1.70;0.80;;;;;;;;;;5055269;28;20052;-79
2021/12/15 16:04:06;;;;;;;2.92;1.20;;;;;;;;;;5065149;28;20060;-79
2021/12/15 16:06:33;;;;;;;1.67;1.10;;;;;;;;;;5066946;28;20132;-79
2021/12/15 16:09:01;;;;;;;2.45;0.90;;;;;;;;;;5062999;28;20059;-79
2021/12/15 16:11:30;;;;;;;3.65;0.90;;;;;;;;;;5062234;28;20068;-81
2021/12/15 16:14:03;;;;;;;2.17;0.90;;;;;;;;;;5067939;28;20063;-80
2021/12/15 16:16:39;;;;;;;1.85;0.95;;;;;;;;;;5047326;28;20109;-80
2021/12/15 16:19:16;;;;;;;1.88;0.90;;;;;;;;;;5046395;28;20112;-79
2021/12/15 16:24:16;;;;;;;2.28;1.00;;;;;;;;;;5068043;28;21270;-79